Time;durP1;ratioP1;P1;durP2;ratioP2;P2;SDS_P1;SDS_P2;PMS_P1;PMS_P2;Temp;Humidity;BMP_temperature;BMP_pressure;BME280_temperature;BME280_humidity;BME280_pressure;Samples;Min_cycle;Max_cycle;Signal;HPM_P1;HPM_P2
2022/06/10 00:00:03;;;;;;;4.78;1.15;;;;;19.40;101876.00;;;;5067655;28;20210;-78
2022/06/10 00:02:30;;;;;;;2.75;1.15;;;;;19.40;101877.00;;;;5068135;28;20571;-78
2022/06/10 00:04:59;;;;;;;4.25;0.68;;;;;19.30;101877.00;;;;5069067;28;20195;-77
2022/06/10 00:07:33;;;;;;;2.10;1.00;;;;;19.30;101879.00;;;;5071227;28;20229;-77
2022/06/10 00:10:01;;;;;;;1.90;0.65;;;;;19.30;101877.00;;;;5070244;28;20197;-78
2022/06/10 00:12:30;;;;;;;2.75;1.00;;;;;19.30;101879.00;;;;5070363;28;20569;-78
2022/06/10 00:14:57;;;;;;;2.75;0.90;;;;;19.20;101878.00;;;;5069962;28;20219;-78
2022/06/10 00:17:26;;;;;;;1.25;0.95;;;;;19.20;101870.00;;;;5069844;28;20195;-78
2022/06/10 00:19:53;;;;;;;3.33;1.23;;;;;19.20;101874.00;;;;5070142;28;20205;-78
2022/06/10 00:22:20;;;;;;;4.32;1.10;;;;;19.20;101876.00;;;;5069093;28;20207;-78
2022/06/10 00:24:48;;;;;;;3.45;0.65;;;;;19.20;101876.00;;;;5068273;28;20202;-78
2022/06/10 00:27:16;;;;;;;1.80;1.00;;;;;19.10;101872.00;;;;5069181;28;20219;-77
2022/06/10 00:29:43;;;;;;;4.07;1.13;;;;;19.20;101870.00;;;;5070110;28;20852;-78
2022/06/10 00:32:10;;;;;;;3.05;1.25;;;;;19.10;101871.00;;;;5070320;28;20199;-77
2022/06/10 00:34:39;;;;;;;1.67;0.88;;;;;19.10;101869.00;;;;5066094;28;21969;-78
2022/06/10 00:37:07;;;;;;;2.92;1.15;;;;;19.10;101865.00;;;;5066069;28;20194;-78
2022/06/10 00:39:35;;;;;;;3.55;1.17;;;;;19.10;101871.00;;;;5066345;28;20234;-77
2022/06/10 00:42:03;;;;;;;3.08;0.98;;;;;19.00;101864.00;;;;5067759;28;20292;-77
2022/06/10 00:44:37;;;;;;;3.60;1.02;;;;;19.00;101870.00;;;;5069205;28;20229;-77
2022/06/10 00:47:12;;;;;;;1.35;1.00;;;;;19.00;101870.00;;;;5063363;28;20229;-77
2022/06/10 00:49:44;;;;;;;1.70;1.00;;;;;19.00;101869.00;;;;5067424;28;20230;-77
2022/06/10 00:52:22;;;;;;;2.50;1.10;;;;;18.90;101865.00;;;;5068497;28;20256;-78
2022/06/10 00:54:53;;;;;;;3.13;1.15;;;;;18.90;101862.00;;;;5068416;28;20219;-78
2022/06/10 00:57:24;;;;;;;2.08;1.02;;;;;18.90;101860.00;;;;5065009;28;20207;-77
2022/06/10 00:59:54;;;;;;;3.80;1.35;;;;;18.90;101852.00;;;;5062861;28;20828;-78
2022/06/10 01:02:24;;;;;;;2.35;1.50;;;;;18.90;101857.00;;;;5067693;28;20209;-77
2022/06/10 01:04:55;;;;;;;3.25;1.35;;;;;18.80;101858.00;;;;5067425;28;20199;-78
2022/06/10 01:07:27;;;;;;;2.25;1.05;;;;;18.80;101860.00;;;;5066186;28;20288;-78
2022/06/10 01:09:56;;;;;;;1.88;1.00;;;;;18.90;101861.00;;;;5068207;28;20199;-78
2022/06/10 01:12:51;;;;;;;3.80;1.20;;;;;18.70;101856.00;;;;5068651;28;20695;-78
2022/06/10 01:15:32;;;;;;;3.08;1.25;;;;;18.80;101861.00;;;;5056739;28;20206;-77
2022/06/10 01:18:15;;;;;;;1.92;1.38;;;;;18.80;101861.00;;;;5066342;28;20202;-78
2022/06/10 01:20:57;;;;;;;4.60;1.13;;;;;18.80;101860.00;;;;5068146;28;20672;-78
2022/06/10 01:24:10;;;;;;;2.78;1.33;;;;;18.70;101855.00;;;;5067937;28;20194;-78
2022/06/10 01:30:21;;;;;;;1.52;1.02;;;;;18.70;101856.00;;;;5063069;28;20409;-77
2022/06/10 01:32:57;;;;;;;4.10;1.45;;;;;18.70;101859.00;;;;5062052;28;20190;-78
2022/06/10 01:35:33;;;;;;;3.83;1.58;;;;;18.70;101855.00;;;;5067373;28;20206;-77
2022/06/10 01:38:09;;;;;;;4.88;1.15;;;;;18.70;101851.00;;;;5067238;28;20197;-77
2022/06/10 01:40:40;;;;;;;2.17;1.17;;;;;18.80;101848.00;;;;5067185;28;20672;-77
2022/06/10 01:43:16;;;;;;;2.17;1.42;;;;;18.80;101849.00;;;;5068376;28;20223;-77
2022/06/10 01:45:50;;;;;;;2.75;1.30;;;;;18.80;101842.00;;;;5065046;28;20260;-77
2022/06/10 01:48:28;;;;;;;2.55;1.60;;;;;18.80;101849.00;;;;5061735;28;20602;-77
2022/06/10 01:51:04;;;;;;;3.30;1.23;;;;;18.80;101854.00;;;;5064367;28;20191;-78
2022/06/10 01:53:37;;;;;;;4.97;1.30;;;;;18.90;101850.00;;;;5065685;28;20206;-77
2022/06/10 01:56:10;;;;;;;5.25;1.42;;;;;18.90;101856.00;;;;5057268;28;20203;-78
2022/06/10 01:58:41;;;;;;;2.35;1.40;;;;;18.90;101859.00;;;;5067940;28;20205;-77
2022/06/10 02:01:12;;;;;;;3.13;1.42;;;;;18.90;101851.00;;;;5067727;28;20195;-77
2022/06/10 02:03:46;;;;;;;3.72;1.25;;;;;18.90;101854.00;;;;5067244;28;20191;-77
2022/06/10 02:06:18;;;;;;;5.30;1.63;;;;;19.00;101850.00;;;;5067570;28;20214;-77
2022/06/10 02:08:50;;;;;;;3.55;1.60;;;;;19.00;101853.00;;;;5067969;28;20729;-77
2022/06/10 02:11:21;;;;;;;4.97;1.40;;;;;19.10;101848.00;;;;5068074;28;20199;-77
2022/06/10 02:13:53;;;;;;;2.35;1.48;;;;;19.10;101852.00;;;;5067298;28;20718;-78
2022/06/10 02:16:24;;;;;;;1.70;1.60;;;;;19.10;101843.00;;;;5066964;28;20199;-78
2022/06/10 02:18:58;;;;;;;2.50;1.40;;;;;19.10;101846.00;;;;5067152;28;20183;-78
2022/06/10 02:21:33;;;;;;;3.83;1.48;;;;;19.20;101849.00;;;;5055364;28;20191;-78
2022/06/10 02:24:06;;;;;;;2.53;1.42;;;;;19.20;101843.00;;;;5066382;28;20199;-77
2022/06/10 02:26:36;;;;;;;1.80;1.15;;;;;19.30;101855.00;;;;5071269;28;20202;-78
2022/06/10 02:29:07;;;;;;;5.32;1.40;;;;;19.30;101857.00;;;;5071623;28;20226;-78
2022/06/10 02:31:40;;;;;;;2.92;1.42;;;;;19.30;101853.00;;;;5070885;28;20194;-77
2022/06/10 02:34:09;;;;;;;7.75;1.52;;;;;19.30;101851.00;;;;5071604;28;20194;-77
2022/06/10 02:36:42;;;;;;;2.10;1.23;;;;;19.40;101857.00;;;;5072270;28;20533;-77
2022/06/10 02:39:16;;;;;;;5.35;1.75;;;;;19.40;101848.00;;;;5066149;28;20206;-78
2022/06/10 02:41:50;;;;;;;3.70;1.17;;;;;19.40;101848.00;;;;5069998;28;20218;-78
2022/06/10 02:44:24;;;;;;;3.35;1.52;;;;;19.50;101860.00;;;;5069756;28;20202;-78
2022/06/10 02:47:01;;;;;;;5.68;1.92;;;;;19.50;101865.00;;;;5071197;28;20194;-78
2022/06/10 02:49:30;;;;;;;3.78;1.40;;;;;19.60;101864.00;;;;5071284;28;20222;-78
2022/06/10 02:51:58;;;;;;;4.07;1.85;;;;;19.60;101865.00;;;;5068045;28;20195;-78
2022/06/10 02:54:30;;;;;;;3.03;1.52;;;;;19.60;101871.00;;;;5070282;28;20290;-77
2022/06/10 02:56:58;;;;;;;2.58;1.50;;;;;19.70;101869.00;;;;5067160;28;20219;-77
2022/06/10 03:02:22;;;;;;;2.33;1.42;;;;;19.60;101872.00;;;;5069243;28;20579;-78
2022/06/10 03:05:04;;;;;;;4.85;1.65;;;;;19.70;101874.00;;;;5067271;28;20638;-77
2022/06/10 03:07:44;;;;;;;4.57;1.35;;;;;19.70;101873.00;;;;5069865;28;20206;-77
2022/06/10 03:10:25;;;;;;;4.05;1.17;;;;;19.80;101883.00;;;;5067831;28;20199;-77
2022/06/10 03:13:09;;;;;;;2.88;1.08;;;;;19.80;101883.00;;;;5054134;28;20214;-78
2022/06/10 03:15:57;;;;;;;5.10;1.58;;;;;19.80;101884.00;;;;5071320;28;20296;-77
2022/06/10 03:18:36;;;;;;;2.97;1.40;;;;;19.90;101885.00;;;;5068610;28;20210;-77
2022/06/10 03:21:15;;;;;;;4.15;1.60;;;;;19.90;101880.00;;;;5065900;28;20183;-78
2022/06/10 03:23:53;;;;;;;3.42;1.30;;;;;20.00;101877.00;;;;5072613;28;20190;-77
2022/06/10 03:26:28;;;;;;;6.22;1.90;;;;;20.00;101880.00;;;;5068652;28;20218;-77
2022/06/10 03:29:05;;;;;;;2.28;1.10;;;;;20.00;101878.00;;;;5068095;28;20660;-77
2022/06/10 03:31:36;;;;;;;4.22;1.17;;;;;20.10;101880.00;;;;5066456;28;20240;-77
2022/06/10 03:34:10;;;;;;;4.65;0.98;;;;;20.10;101877.00;;;;5068428;28;21029;-77
2022/06/10 03:36:40;;;;;;;2.88;1.17;;;;;20.10;101879.00;;;;5068294;28;20859;-77
2022/06/10 03:39:08;;;;;;;2.83;1.30;;;;;20.20;101878.00;;;;5067414;28;20236;-78
2022/06/10 03:41:42;;;;;;;5.88;1.40;;;;;20.20;101880.00;;;;5068011;28;20230;-77
2022/06/10 03:44:15;;;;;;;3.47;1.23;;;;;20.20;101885.00;;;;5069731;28;20203;-78
2022/06/10 03:46:48;;;;;;;5.13;1.10;;;;;20.20;101875.00;;;;5059511;28;20203;-77
2022/06/10 03:49:18;;;;;;;5.25;1.55;;;;;20.30;101883.00;;;;5070231;28;20219;-78
2022/06/10 03:51:47;;;;;;;2.22;0.90;;;;;20.30;101892.00;;;;5069824;28;20191;-77
2022/06/10 03:54:19;;;;;;;6.63;1.23;;;;;20.30;101892.00;;;;5069905;28;20210;-77
2022/06/10 03:56:46;;;;;;;2.22;1.15;;;;;20.40;101895.00;;;;5068807;28;20187;-77
2022/06/10 03:59:14;;;;;;;3.35;0.95;;;;;20.40;101901.00;;;;5069598;28;20202;-77
2022/06/10 04:01:41;;;;;;;4.38;1.10;;;;;20.40;101898.00;;;;5068825;28;20967;-77
2022/06/10 04:04:08;;;;;;;3.70;0.90;;;;;20.50;101901.00;;;;5068737;28;20195;-77
2022/06/10 04:06:36;;;;;;;4.18;1.35;;;;;20.50;101897.00;;;;5070036;28;20195;-76
2022/06/10 04:09:05;;;;;;;6.68;0.98;;;;;20.50;101912.00;;;;5067013;28;20237;-77
2022/06/10 04:11:32;;;;;;;8.90;2.00;;;;;20.50;101908.00;;;;5065851;28;20199;-78
2022/06/10 04:13:59;;;;;;;2.17;0.93;;;;;20.50;101919.00;;;;5054965;28;20313;-77
2022/06/10 04:16:28;;;;;;;2.53;0.82;;;;;20.60;101912.00;;;;5067304;28;20587;-77
2022/06/10 04:18:56;;;;;;;4.43;1.63;;;;;20.60;101913.00;;;;5068937;28;20203;-78
2022/06/10 04:21:23;;;;;;;1.95;0.60;;;;;20.60;101911.00;;;;5066617;28;20207;-77
2022/06/10 04:23:50;;;;;;;3.03;0.98;;;;;20.60;101916.00;;;;5069698;28;20552;-76
2022/06/10 04:26:19;;;;;;;1.98;1.00;;;;;20.60;101920.00;;;;5068328;28;20195;-77
2022/06/10 04:28:47;;;;;;;1.35;0.70;;;;;20.60;101927.00;;;;5069298;28;20222;-77
2022/06/10 04:31:14;;;;;;;4.47;1.70;;;;;20.60;101928.00;;;;5068178;28;22179;-77
2022/06/10 04:33:42;;;;;;;2.47;1.08;;;;;20.70;101924.00;;;;5069161;28;20199;-77
2022/06/10 04:36:13;;;;;;;6.75;1.05;;;;;20.70;101931.00;;;;5069112;28;20203;-78
2022/06/10 04:38:41;;;;;;;3.65;0.85;;;;;20.70;101930.00;;;;5063022;28;20587;-78
2022/06/10 04:41:09;;;;;;;1.35;0.57;;;;;20.70;101928.00;;;;5069724;28;20194;-77
2022/06/10 04:43:38;;;;;;;4.93;1.00;;;;;20.80;101931.00;;;;5068873;28;20748;-77
2022/06/10 04:46:08;;;;;;;3.03;1.00;;;;;20.80;101930.00;;;;5069038;28;20206;-78
2022/06/10 04:48:36;;;;;;;5.90;2.08;;;;;20.80;101925.00;;;;5066628;28;20229;-77
2022/06/10 04:51:04;;;;;;;4.13;1.10;;;;;20.90;101919.00;;;;5068736;28;21073;-78
2022/06/10 04:53:31;;;;;;;5.20;0.98;;;;;20.90;101915.00;;;;5069326;28;20198;-78
2022/06/10 04:55:58;;;;;;;3.08;0.93;;;;;20.90;101916.00;;;;5065832;28;20206;-78
2022/06/10 04:58:25;;;;;;;4.25;1.00;;;;;20.90;101916.00;;;;5067365;28;20202;-78
2022/06/10 05:00:54;;;;;;;2.78;1.15;;;;;21.00;101914.00;;;;5068666;28;20191;-78
2022/06/10 05:03:21;;;;;;;2.85;1.10;;;;;21.00;101910.00;;;;5068829;28;20587;-77
2022/06/10 05:05:48;;;;;;;4.95;1.40;;;;;21.10;101906.00;;;;5067113;28;20198;-78
2022/06/10 05:08:18;;;;;;;5.18;1.00;;;;;21.10;101904.00;;;;5069432;28;20199;-77
2022/06/10 05:10:46;;;;;;;4.72;1.13;;;;;21.10;101908.00;;;;5065549;28;20198;-78
2022/06/10 05:13:13;;;;;;;4.18;0.95;;;;;21.20;101911.00;;;;5065888;28;20218;-78
2022/06/10 05:15:40;;;;;;;2.10;1.10;;;;;21.20;101914.00;;;;5066934;28;20661;-78
2022/06/10 05:18:10;;;;;;;3.90;1.10;;;;;21.20;101909.00;;;;5068910;28;20198;-78
2022/06/10 05:20:40;;;;;;;4.10;0.95;;;;;21.30;101904.00;;;;5066073;28;21059;-78
2022/06/10 05:23:09;;;;;;;3.80;1.10;;;;;21.30;101901.00;;;;5066134;28;20198;-78
2022/06/10 05:25:37;;;;;;;4.38;1.20;;;;;21.40;101905.00;;;;5067774;28;20199;-78
2022/06/10 05:28:06;;;;;;;3.50;1.10;;;;;21.40;101908.00;;;;5066349;28;20203;-78
2022/06/10 05:30:35;;;;;;;2.92;1.20;;;;;21.40;101901.00;;;;5064957;28;20237;-78
2022/06/10 05:33:03;;;;;;;2.90;1.30;;;;;21.40;101913.00;;;;5067144;28;20640;-78
2022/06/10 05:35:32;;;;;;;2.03;1.00;;;;;21.40;101905.00;;;;5062725;28;20203;-78
2022/06/10 05:38:00;;;;;;;3.38;1.00;;;;;21.50;101908.00;;;;5066418;28;20858;-78
2022/06/10 05:40:30;;;;;;;2.17;0.95;;;;;21.50;101905.00;;;;5066668;28;20255;-78
2022/06/10 05:42:57;;;;;;;5.03;1.08;;;;;21.50;101902.00;;;;5062000;28;20226;-78
2022/06/10 05:45:26;;;;;;;2.03;0.80;;;;;21.60;101903.00;;;;5056089;28;20199;-79
2022/06/10 05:47:57;;;;;;;3.53;1.42;;;;;21.60;101903.00;;;;5062923;28;20199;-77
2022/06/10 05:50:28;;;;;;;3.65;1.40;;;;;21.60;101906.00;;;;5065768;28;20241;-79
2022/06/10 05:52:57;;;;;;;1.48;0.90;;;;;21.70;101905.00;;;;5060313;28;20249;-78
2022/06/10 05:55:24;;;;;;;3.75;0.98;;;;;21.70;101908.00;;;;5064778;28;20199;-78
2022/06/10 05:57:52;;;;;;;2.38;0.93;;;;;21.70;101913.00;;;;5065903;28;20199;-78
2022/06/10 06:00:22;;;;;;;2.30;0.80;;;;;21.80;101914.00;;;;5064924;28;20213;-78
2022/06/10 06:02:49;;;;;;;3.30;0.75;;;;;21.80;101904.00;;;;5061684;28;20194;-80
2022/06/10 06:05:18;;;;;;;7.75;1.00;;;;;21.90;101912.00;;;;5063658;28;20203;-80
2022/06/10 06:07:46;;;;;;;3.67;0.90;;;;;21.90;101912.00;;;;5064231;28;20198;-80
2022/06/10 06:10:19;;;;;;;2.70;0.90;;;;;21.90;101914.00;;;;5065703;28;20229;-78
2022/06/10 06:12:46;;;;;;;3.03;0.95;;;;;22.00;101913.00;;;;5066755;28;20203;-78
2022/06/10 06:15:14;;;;;;;2.70;0.82;;;;;22.00;101920.00;;;;5067763;28;20203;-78
2022/06/10 06:17:45;;;;;;;4.25;1.20;;;;;22.00;101924.00;;;;5067263;28;20206;-79
2022/06/10 06:20:15;;;;;;;3.03;1.15;;;;;22.00;101921.00;;;;5055598;28;20210;-78
2022/06/10 06:22:42;;;;;;;4.82;0.80;;;;;22.10;101922.00;;;;5047873;28;20208;-78
2022/06/10 06:25:15;;;;;;;4.28;0.63;;;;;22.10;101932.00;;;;5057219;28;20199;-78
2022/06/10 06:27:46;;;;;;;2.63;1.25;;;;;22.20;101936.00;;;;5068001;28;20199;-78
2022/06/10 06:30:18;;;;;;;5.53;1.20;;;;;22.20;101935.00;;;;5067865;28;20266;-78
2022/06/10 06:32:46;;;;;;;3.00;1.30;;;;;22.20;101946.00;;;;5067138;28;20199;-78
2022/06/10 06:35:15;;;;;;;2.85;0.98;;;;;22.20;101934.00;;;;5067028;28;20218;-78
2022/06/10 06:37:43;;;;;;;4.10;1.23;;;;;22.30;101940.00;;;;5066739;28;20695;-78
2022/06/10 06:40:11;;;;;;;3.78;0.95;;;;;22.30;101950.00;;;;5067990;28;20211;-78
2022/06/10 06:42:40;;;;;;;3.10;1.25;;;;;22.30;101953.00;;;;5067412;28;20226;-78
2022/06/10 06:45:09;;;;;;;3.55;1.10;;;;;22.30;101965.00;;;;5067450;28;20194;-78
2022/06/10 06:47:36;;;;;;;5.15;1.15;;;;;22.30;101960.00;;;;5067638;28;20207;-78
2022/06/10 06:50:05;;;;;;;3.58;1.10;;;;;22.40;101959.00;;;;5066899;28;20262;-78
2022/06/10 06:52:32;;;;;;;4.97;1.25;;;;;22.40;101955.00;;;;5066853;28;20669;-78
2022/06/10 06:54:59;;;;;;;4.70;1.40;;;;;22.40;101952.00;;;;5058225;28;20195;-78
2022/06/10 06:57:27;;;;;;;4.95;1.60;;;;;22.40;101950.00;;;;5067984;28;20203;-79
2022/06/10 07:00:02;;;;;;;5.45;1.08;;;;;22.40;101957.00;;;;5067164;28;20838;-78
2022/06/10 07:02:29;;;;;;;1.98;1.10;;;;;22.50;101956.00;;;;5047585;28;20732;-78
2022/06/10 07:04:57;;;;;;;4.57;1.30;;;;;22.50;101958.00;;;;5065699;28;20187;-78
2022/06/10 07:07:24;;;;;;;2.65;1.13;;;;;22.50;101962.00;;;;5067313;28;20195;-78
2022/06/10 07:09:52;;;;;;;3.28;1.30;;;;;22.50;101958.00;;;;5065702;28;20222;-78
2022/06/10 07:12:19;;;;;;;3.60;1.10;;;;;22.60;101963.00;;;;5059148;28;20207;-78
2022/06/10 07:14:46;;;;;;;4.15;1.10;;;;;22.60;101967.00;;;;5050384;28;20231;-78
2022/06/10 07:17:15;;;;;;;2.90;1.30;;;;;22.60;101956.00;;;;5051619;28;20665;-78
2022/06/10 07:19:43;;;;;;;2.38;1.08;;;;;22.70;101963.00;;;;5050718;28;20238;-78
2022/06/10 07:22:11;;;;;;;2.58;1.30;;;;;22.80;101959.00;;;;5051669;28;20318;-78
2022/06/10 07:24:38;;;;;;;4.43;1.67;;;;;22.80;101965.00;;;;5056941;28;20234;-78
2022/06/10 07:27:06;;;;;;;5.03;1.05;;;;;22.80;101966.00;;;;5068240;28;20207;-78
2022/06/10 07:29:33;;;;;;;2.42;1.42;;;;;22.90;101967.00;;;;5051262;28;20606;-78
2022/06/10 07:32:01;;;;;;;7.25;1.70;;;;;22.90;101969.00;;;;5050948;28;20211;-79
2022/06/10 07:34:29;;;;;;;3.42;1.42;;;;;23.00;101966.00;;;;5068828;28;20568;-78
2022/06/10 07:36:56;;;;;;;1.80;1.10;;;;;23.00;101957.00;;;;5071667;28;20206;-78
2022/06/10 07:39:24;;;;;;;3.20;1.35;;;;;23.10;101955.00;;;;5071745;28;20198;-78
2022/06/10 07:42:00;;;;;;;3.38;1.10;;;;;23.10;101957.00;;;;5070643;28;20219;-78
2022/06/10 07:44:29;;;;;;;3.60;1.50;;;;;23.20;101956.00;;;;5065773;28;20211;-78
2022/06/10 07:46:59;;;;;;;4.78;1.15;;;;;23.30;101960.00;;;;5068727;28;20207;-78
2022/06/10 07:49:26;;;;;;;3.50;1.15;;;;;23.30;101952.00;;;;5070871;28;20352;-79
2022/06/10 07:51:55;;;;;;;3.17;1.17;;;;;23.40;101955.00;;;;5070836;28;20202;-79
2022/06/10 07:54:23;;;;;;;4.55;1.20;;;;;23.40;101957.00;;;;5071130;28;20199;-78
2022/06/10 07:56:50;;;;;;;4.97;1.23;;;;;23.50;101964.00;;;;5070978;28;20286;-78
2022/06/10 07:59:18;;;;;;;8.52;1.48;;;;;23.50;101958.00;;;;5070652;28;20203;-79
2022/06/10 08:01:45;;;;;;;4.75;1.58;;;;;23.50;101962.00;;;;5069460;28;20207;-78
2022/06/10 08:04:12;;;;;;;4.82;1.27;;;;;23.60;101964.00;;;;5070540;28;20202;-78
2022/06/10 08:06:43;;;;;;;3.88;1.10;;;;;23.60;101954.00;;;;5069934;28;20206;-78
2022/06/10 08:09:12;;;;;;;3.55;1.08;;;;;23.70;101963.00;;;;5070462;28;21044;-78
2022/06/10 08:11:40;;;;;;;5.88;1.20;;;;;23.80;101960.00;;;;5070497;28;20202;-78
2022/06/10 08:14:08;;;;;;;5.20;1.67;;;;;23.80;101963.00;;;;5070102;28;20242;-78
2022/06/10 08:16:37;;;;;;;3.75;1.30;;;;;23.90;101956.00;;;;5070885;28;20199;-78
2022/06/10 08:19:05;;;;;;;2.03;1.25;;;;;24.00;101952.00;;;;5059407;28;20196;-78
2022/06/10 08:24:20;;;;;;;3.28;2.05;;;;;24.10;101956.00;;;;5068297;28;20691;-78
2022/06/10 08:26:48;;;;;;;5.82;1.60;;;;;24.20;101955.00;;;;5070203;28;20529;-78
2022/06/10 08:29:16;;;;;;;4.80;0.90;;;;;24.40;101944.00;;;;5070094;28;20669;-78
2022/06/10 08:31:43;;;;;;;6.10;1.20;;;;;24.50;101953.00;;;;5070512;28;20642;-78
2022/06/10 08:34:11;;;;;;;1.73;0.90;;;;;24.60;101958.00;;;;5069962;28;20206;-77
2022/06/10 08:36:38;;;;;;;4.32;1.38;;;;;24.70;101957.00;;;;5055393;28;20214;-77
2022/06/10 08:39:06;;;;;;;5.00;1.70;;;;;24.90;101957.00;;;;5050132;28;20226;-78
2022/06/10 08:41:48;;;;;;;5.70;1.60;;;;;24.90;101953.00;;;;5058726;28;20194;-78
2022/06/10 08:44:27;;;;;;;2.70;1.00;;;;;25.10;101953.00;;;;5069617;28;20195;-78
2022/06/10 08:47:09;;;;;;;3.92;1.35;;;;;25.20;101949.00;;;;5068651;28;20206;-77
2022/06/10 08:49:53;;;;;;;4.38;0.90;;;;;25.30;101958.00;;;;5048500;28;20207;-78
2022/06/10 08:52:31;;;;;;;6.78;1.40;;;;;25.50;101952.00;;;;5049908;28;20219;-78
2022/06/10 08:55:09;;;;;;;1.80;1.35;;;;;25.60;101952.00;;;;5048875;28;20195;-79
2022/06/10 08:57:39;;;;;;;2.50;1.10;;;;;25.80;101950.00;;;;5048877;28;20546;-78
2022/06/10 09:00:17;;;;;;;3.88;1.83;;;;;25.90;101953.00;;;;5050108;28;20207;-78
2022/06/10 09:02:52;;;;;;;4.05;1.40;;;;;26.10;101951.00;;;;5068677;28;20287;-78
2022/06/10 09:05:23;;;;;;;2.50;1.10;;;;;26.20;101949.00;;;;5067979;28;20194;-79
2022/06/10 09:07:54;;;;;;;4.70;1.48;;;;;26.40;101954.00;;;;5068571;28;20209;-78
2022/06/10 09:10:26;;;;;;;3.70;1.40;;;;;26.50;101958.00;;;;5055619;28;20263;-78
2022/06/10 09:13:15;;;;;;;2.75;1.10;;;;;26.50;101958.00;;;;5048457;28;20290;-78
2022/06/10 09:15:47;;;;;;;3.85;1.10;;;;;26.60;101961.00;;;;5048509;28;20919;-78
2022/06/10 09:18:20;;;;;;;3.42;1.48;;;;;26.70;101964.00;;;;5057701;28;20238;-78
2022/06/10 09:20:54;;;;;;;5.32;1.30;;;;;26.80;101954.00;;;;5068751;28;20195;-79
2022/06/10 09:23:29;;;;;;;5.13;1.13;;;;;26.90;101965.00;;;;5069073;28;20711;-78
2022/06/10 09:26:07;;;;;;;3.95;1.13;;;;;27.00;101960.00;;;;5066456;28;20706;-78
2022/06/10 09:28:37;;;;;;;5.53;1.42;;;;;27.00;101964.00;;;;5049013;28;20207;-78
2022/06/10 09:31:12;;;;;;;11.38;1.80;;;;;27.10;101959.00;;;;5048660;28;20231;-78
2022/06/10 09:33:50;;;;;;;3.78;0.82;;;;;27.10;101960.00;;;;5064269;28;20194;-78
2022/06/10 09:36:26;;;;;;;4.10;1.50;;;;;27.20;101959.00;;;;5068210;28;20210;-79
2022/06/10 09:39:01;;;;;;;5.45;1.60;;;;;27.20;101958.00;;;;5068599;28;20201;-78
2022/06/10 09:41:37;;;;;;;2.75;1.35;;;;;27.20;101958.00;;;;5068799;28;20211;-78
2022/06/10 09:44:18;;;;;;;5.30;1.40;;;;;27.10;101952.00;;;;5061142;28;20522;-78
2022/06/10 09:47:06;;;;;;;3.33;1.63;;;;;27.10;101958.00;;;;5068303;28;20206;-79
2022/06/10 09:50:03;;;;;;;4.35;0.88;;;;;27.10;101958.00;;;;5069164;28;20203;-78
2022/06/10 09:52:35;;;;;;;4.45;1.13;;;;;27.10;101959.00;;;;5068540;28;20629;-78
2022/06/10 09:55:32;;;;;;;2.40;0.90;;;;;27.00;101959.00;;;;5068210;28;20592;-78
2022/06/10 09:58:13;;;;;;;3.92;0.98;;;;;27.00;101960.00;;;;5067054;28;20195;-78
2022/06/10 10:00:48;;;;;;;2.90;1.20;;;;;27.00;101953.00;;;;5066718;28;20202;-78
2022/06/10 10:03:36;;;;;;;3.72;1.45;;;;;26.90;101954.00;;;;5067670;28;20202;-78
2022/06/10 10:06:26;;;;;;;3.97;1.45;;;;;26.80;101952.00;;;;5067884;28;20794;-78
2022/06/10 10:09:14;;;;;;;3.28;1.00;;;;;26.90;101957.00;;;;5067980;28;20203;-78
2022/06/10 10:11:45;;;;;;;3.38;1.00;;;;;27.00;101959.00;;;;5067332;28;20231;-78
2022/06/10 10:14:24;;;;;;;6.35;1.55;;;;;27.00;101951.00;;;;5067972;28;20215;-78
2022/06/10 10:17:06;;;;;;;2.92;1.30;;;;;27.00;101962.00;;;;5066823;28;20199;-78
2022/06/10 10:19:48;;;;;;;1.85;1.15;;;;;27.00;101965.00;;;;5047722;28;20290;-78
2022/06/10 10:22:42;;;;;;;3.38;1.38;;;;;27.00;101954.00;;;;5047763;28;20199;-78
2022/06/10 10:25:15;;;;;;;3.85;1.08;;;;;27.10;101959.00;;;;5046166;28;20710;-79
2022/06/10 10:27:44;;;;;;;4.50;1.38;;;;;27.10;101959.00;;;;5047799;28;20191;-79
2022/06/10 10:30:20;;;;;;;3.15;1.08;;;;;27.00;101962.00;;;;5065379;28;20665;-78
2022/06/10 10:32:53;;;;;;;5.38;1.40;;;;;27.00;101963.00;;;;5066634;28;20191;-78
2022/06/10 10:35:24;;;;;;;2.45;1.30;;;;;27.00;101965.00;;;;5066738;28;20210;-79
2022/06/10 10:37:56;;;;;;;3.30;1.00;;;;;27.00;101966.00;;;;5067412;28;20191;-78
2022/06/10 10:40:34;;;;;;;4.55;1.85;;;;;26.90;101965.00;;;;5068033;28;20198;-78
2022/06/10 10:43:06;;;;;;;3.00;1.00;;;;;26.90;101962.00;;;;5067198;28;20234;-78
2022/06/10 10:45:36;;;;;;;2.85;1.45;;;;;26.90;101974.00;;;;5068824;28;20209;-79
2022/06/10 10:48:16;;;;;;;3.03;0.95;;;;;26.80;101983.00;;;;5071295;28;20381;-79
2022/06/10 10:50:55;;;;;;;3.67;1.15;;;;;26.80;101981.00;;;;5072079;28;20229;-79
2022/06/10 10:53:27;;;;;;;1.95;1.08;;;;;26.80;101979.00;;;;5071899;28;20191;-78
2022/06/10 10:55:57;;;;;;;2.53;1.30;;;;;26.80;101981.00;;;;5070413;28;20199;-78
2022/06/10 10:58:29;;;;;;;4.32;1.80;;;;;26.80;101978.00;;;;5071059;28;20199;-78
2022/06/10 11:01:01;;;;;;;3.70;1.30;;;;;26.90;101975.00;;;;5071157;28;20198;-78
2022/06/10 11:03:32;;;;;;;1.95;1.05;;;;;26.90;101973.00;;;;5071319;28;20191;-78
2022/06/10 11:06:01;;;;;;;2.63;0.85;;;;;27.00;101989.00;;;;5070883;28;20198;-78
2022/06/10 11:08:32;;;;;;;1.92;0.85;;;;;27.00;101978.00;;;;5070190;28;20207;-79
2022/06/10 11:11:06;;;;;;;2.08;0.80;;;;;27.00;101978.00;;;;5071000;28;20223;-78
2022/06/10 11:16:56;;;;;;;2.08;0.80;;;;;27.10;101979.00;;;;5048793;28;20289;-78
2022/06/10 11:19:41;;;;;;;1.42;1.30;;;;;27.10;101981.00;;;;5048980;28;20227;-78
2022/06/10 11:22:17;;;;;;;1.95;0.93;;;;;27.30;101978.00;;;;5048740;28;20203;-78
2022/06/10 11:24:46;;;;;;;2.97;1.27;;;;;27.30;101960.00;;;;5047377;28;20210;-78
2022/06/10 11:27:27;;;;;;;5.82;1.27;;;;;27.30;101966.00;;;;5028581;28;20212;-78
2022/06/10 11:30:03;;;;;;;2.72;1.20;;;;;27.40;101969.00;;;;5029079;28;20306;-77
2022/06/10 11:32:36;;;;;;;3.85;1.40;;;;;27.40;101968.00;;;;5039853;28;20637;-78
2022/06/10 11:35:23;;;;;;;1.65;0.80;;;;;27.40;101958.00;;;;5048424;28;20199;-78
2022/06/10 11:37:54;;;;;;;1.92;1.00;;;;;27.60;101958.00;;;;5048377;28;20195;-78
2022/06/10 11:40:25;;;;;;;1.50;0.98;;;;;27.60;101957.00;;;;5049714;28;20195;-77
2022/06/10 11:42:56;;;;;;;3.15;1.20;;;;;27.70;101962.00;;;;5040039;28;20235;-78
2022/06/10 11:45:26;;;;;;;2.47;1.02;;;;;27.80;101968.00;;;;5049838;28;20751;-77
2022/06/10 11:47:59;;;;;;;3.92;0.88;;;;;27.90;101968.00;;;;5062696;28;20225;-78
2022/06/10 11:50:34;;;;;;;1.70;1.15;;;;;27.90;101963.00;;;;5071322;28;20202;-78
2022/06/10 11:53:07;;;;;;;2.60;0.95;;;;;28.00;101964.00;;;;5065774;28;20676;-79
2022/06/10 11:55:37;;;;;;;1.30;1.00;;;;;28.10;101960.00;;;;5065454;28;20214;-80
2022/06/10 12:01:13;;;;;;;1.20;0.70;;;;;28.10;101962.00;;;;5008485;28;20259;-79
2022/06/10 12:03:46;;;;;;;1.60;0.82;;;;;28.10;101952.00;;;;5053553;28;20243;-79
2022/06/10 12:06:22;;;;;;;0.93;0.90;;;;;28.10;101956.00;;;;5067786;28;20297;-79
2022/06/10 12:08:55;;;;;;;2.95;1.15;;;;;28.20;101955.00;;;;5069212;28;20206;-80
2022/06/10 12:11:33;;;;;;;3.92;1.23;;;;;28.20;101953.00;;;;5051824;28;20230;-80
2022/06/10 12:14:06;;;;;;;1.33;0.85;;;;;28.20;101957.00;;;;5063590;28;20211;-80
2022/06/10 12:16:34;;;;;;;2.13;1.00;;;;;28.20;101949.00;;;;5068818;28;20403;-80
2022/06/10 12:19:06;;;;;;;1.02;0.85;;;;;28.20;101946.00;;;;5069844;28;20772;-79
2022/06/10 12:21:35;;;;;;;2.17;0.95;;;;;28.30;101954.00;;;;5070577;28;20563;-79
2022/06/10 12:24:02;;;;;;;2.83;1.20;;;;;28.30;101948.00;;;;5066574;28;20706;-79
2022/06/10 12:26:38;;;;;;;1.90;1.17;;;;;28.30;101945.00;;;;5065286;28;20222;-78
2022/06/10 12:29:14;;;;;;;2.25;0.93;;;;;28.30;101942.00;;;;5063053;28;20194;-79
2022/06/10 12:32:04;;;;;;;1.98;1.15;;;;;28.30;101955.00;;;;5066691;28;20201;-79
2022/06/10 12:34:53;;;;;;;1.25;0.80;;;;;28.20;101943.00;;;;5065864;28;20203;-79
2022/06/10 12:37:38;;;;;;;2.00;1.20;;;;;28.20;101948.00;;;;5068151;28;20206;-78
2022/06/10 12:40:13;;;;;;;3.00;1.33;;;;;28.20;101942.00;;;;5067883;28;20199;-79
2022/06/10 12:42:45;;;;;;;3.20;0.98;;;;;28.20;101935.00;;;;5068421;28;20299;-80
2022/06/10 12:45:20;;;;;;;4.43;1.30;;;;;28.20;101938.00;;;;5063624;28;20615;-80
2022/06/10 12:47:53;;;;;;;3.67;1.30;;;;;28.30;101930.00;;;;5068949;28;20218;-79